sensor_id;sensor_type;location;lat;lon;timestamp;P1;durP1;ratioP1;P2;durP2;ratioP2
28130;SDS011;15418;42.634;23.374;2022-09-09T00:06:30;25.55;;;13.35;;
28130;SDS011;15418;42.634;23.374;2022-09-09T00:09:15;18.45;;;12.52;;
28130;SDS011;15418;42.634;23.374;2022-09-09T00:11:43;20.15;;;11.98;;
28130;SDS011;15418;42.634;23.374;2022-09-09T00:14:15;19.67;;;11.77;;
28130;SDS011;15418;42.634;23.374;2022-09-09T00:17:14;16.98;;;12.43;;
28130;SDS011;15418;42.634;23.374;2022-09-09T00:20:16;19.90;;;12.00;;
28130;SDS011;15418;42.634;23.374;2022-09-09T00:22:45;17.05;;;11.93;;
28130;SDS011;15418;42.634;23.374;2022-09-09T00:25:26;18.77;;;12.25;;
28130;SDS011;15418;42.634;23.374;2022-09-09T00:27:59;15.13;;;11.70;;
28130;SDS011;15418;42.634;23.374;2022-09-09T00:30:29;12.68;;;10.35;;
28130;SDS011;15418;42.634;23.374;2022-09-09T00:32:59;14.95;;;11.25;;
28130;SDS011;15418;42.634;23.374;2022-09-09T00:35:34;13.90;;;10.77;;
28130;SDS011;15418;42.634;23.374;2022-09-09T00:38:10;20.15;;;12.20;;
28130;SDS011;15418;42.634;23.374;2022-09-09T00:43:33;16.02;;;10.68;;
28130;SDS011;15418;42.634;23.374;2022-09-09T00:51:30;16.58;;;9.77;;
28130;SDS011;15418;42.634;23.374;2022-09-09T00:57:22;14.00;;;10.02;;
28130;SDS011;15418;42.634;23.374;2022-09-09T00:59:56;13.98;;;9.57;;
28130;SDS011;15418;42.634;23.374;2022-09-09T01:02:43;14.40;;;10.02;;
28130;SDS011;15418;42.634;23.374;2022-09-09T01:11:10;13.73;;;9.75;;
28130;SDS011;15418;42.634;23.374;2022-09-09T01:13:45;13.60;;;9.98;;
28130;SDS011;15418;42.634;23.374;2022-09-09T01:16:15;19.55;;;9.82;;
28130;SDS011;15418;42.634;23.374;2022-09-09T01:18:46;12.45;;;10.45;;
28130;SDS011;15418;42.634;23.374;2022-09-09T01:26:50;15.30;;;11.77;;
28130;SDS011;15418;42.634;23.374;2022-09-09T01:29:19;17.42;;;11.45;;
28130;SDS011;15418;42.634;23.374;2022-09-09T01:31:56;13.95;;;10.02;;
28130;SDS011;15418;42.634;23.374;2022-09-09T01:34:25;18.58;;;10.60;;
28130;SDS011;15418;42.634;23.374;2022-09-09T01:37:03;14.40;;;10.25;;
28130;SDS011;15418;42.634;23.374;2022-09-09T01:39:33;17.33;;;10.02;;
28130;SDS011;15418;42.634;23.374;2022-09-09T01:41:59;20.95;;;10.88;;
28130;SDS011;15418;42.634;23.374;2022-09-09T01:44:26;17.95;;;10.38;;
28130;SDS011;15418;42.634;23.374;2022-09-09T01:46:54;19.80;;;11.38;;
28130;SDS011;15418;42.634;23.374;2022-09-09T01:49:20;14.30;;;9.85;;
28130;SDS011;15418;42.634;23.374;2022-09-09T01:51:46;10.40;;;9.10;;
28130;SDS011;15418;42.634;23.374;2022-09-09T01:54:18;15.20;;;10.23;;
28130;SDS011;15418;42.634;23.374;2022-09-09T02:04:49;13.60;;;9.60;;
28130;SDS011;15418;42.634;23.374;2022-09-09T02:12:55;15.45;;;10.70;;
28130;SDS011;15418;42.634;23.374;2022-09-09T02:16:00;14.63;;;11.20;;
28130;SDS011;15418;42.634;23.374;2022-09-09T02:21:15;23.05;;;12.43;;
28130;SDS011;15418;42.634;23.374;2022-09-09T02:23:42;14.52;;;11.25;;
28130;SDS011;15418;42.634;23.374;2022-09-09T02:26:12;14.88;;;11.40;;
28130;SDS011;15418;42.634;23.374;2022-09-09T02:28:47;20.25;;;11.30;;
28130;SDS011;15418;42.634;23.374;2022-09-09T02:31:15;17.05;;;10.38;;
28130;SDS011;15418;42.634;23.374;2022-09-09T02:33:44;15.70;;;10.48;;
28130;SDS011;15418;42.634;23.374;2022-09-09T02:36:14;18.38;;;11.48;;
28130;SDS011;15418;42.634;23.374;2022-09-09T02:38:45;16.15;;;11.55;;
28130;SDS011;15418;42.634;23.374;2022-09-09T02:41:17;22.45;;;12.38;;
28130;SDS011;15418;42.634;23.374;2022-09-09T02:43:45;19.98;;;12.13;;
28130;SDS011;15418;42.634;23.374;2022-09-09T02:46:24;21.15;;;11.30;;
28130;SDS011;15418;42.634;23.374;2022-09-09T02:52:00;18.10;;;12.20;;
28130;SDS011;15418;42.634;23.374;2022-09-09T02:54:31;22.83;;;12.65;;
28130;SDS011;15418;42.634;23.374;2022-09-09T02:57:10;19.60;;;11.93;;
28130;SDS011;15418;42.634;23.374;2022-09-09T02:59:43;15.57;;;12.30;;
28130;SDS011;15418;42.634;23.374;2022-09-09T03:02:09;19.10;;;12.75;;
28130;SDS011;15418;42.634;23.374;2022-09-09T03:04:39;20.88;;;13.10;;
28130;SDS011;15418;42.634;23.374;2022-09-09T03:07:07;17.85;;;13.98;;
28130;SDS011;15418;42.634;23.374;2022-09-09T03:09:35;25.02;;;15.07;;
28130;SDS011;15418;42.634;23.374;2022-09-09T03:12:00;30.13;;;16.15;;
28130;SDS011;15418;42.634;23.374;2022-09-09T03:14:26;26.83;;;14.90;;
28130;SDS011;15418;42.634;23.374;2022-09-09T03:16:52;26.77;;;15.93;;
28130;SDS011;15418;42.634;23.374;2022-09-09T03:19:18;22.05;;;15.02;;
28130;SDS011;15418;42.634;23.374;2022-09-09T03:21:46;22.35;;;15.32;;
28130;SDS011;15418;42.634;23.374;2022-09-09T03:24:12;29.52;;;15.00;;
28130;SDS011;15418;42.634;23.374;2022-09-09T03:26:39;21.20;;;15.93;;
28130;SDS011;15418;42.634;23.374;2022-09-09T03:29:06;24.55;;;15.05;;
28130;SDS011;15418;42.634;23.374;2022-09-09T03:31:35;29.02;;;16.00;;
28130;SDS011;15418;42.634;23.374;2022-09-09T03:34:01;24.33;;;16.23;;
28130;SDS011;15418;42.634;23.374;2022-09-09T03:36:27;27.85;;;16.42;;
28130;SDS011;15418;42.634;23.374;2022-09-09T03:38:53;27.65;;;16.20;;
28130;SDS011;15418;42.634;23.374;2022-09-09T03:41:22;24.15;;;16.35;;
28130;SDS011;15418;42.634;23.374;2022-09-09T03:43:51;29.60;;;16.67;;
28130;SDS011;15418;42.634;23.374;2022-09-09T03:46:17;26.90;;;15.73;;
28130;SDS011;15418;42.634;23.374;2022-09-09T03:48:43;27.08;;;15.93;;
28130;SDS011;15418;42.634;23.374;2022-09-09T03:51:09;26.17;;;16.98;;
28130;SDS011;15418;42.634;23.374;2022-09-09T03:53:35;26.70;;;16.85;;
28130;SDS011;15418;42.634;23.374;2022-09-09T03:56:03;28.52;;;17.17;;
28130;SDS011;15418;42.634;23.374;2022-09-09T03:58:29;20.58;;;16.80;;
28130;SDS011;15418;42.634;23.374;2022-09-09T04:03:21;26.15;;;16.55;;
28130;SDS011;15418;42.634;23.374;2022-09-09T04:05:48;33.22;;;15.82;;
28130;SDS011;15418;42.634;23.374;2022-09-09T04:08:14;28.35;;;16.42;;
28130;SDS011;15418;42.634;23.374;2022-09-09T04:10:40;25.17;;;16.10;;
28130;SDS011;15418;42.634;23.374;2022-09-09T04:13:08;24.20;;;15.73;;
28130;SDS011;15418;42.634;23.374;2022-09-09T04:15:35;50.08;;;32.25;;
28130;SDS011;15418;42.634;23.374;2022-09-09T04:18:01;56.28;;;30.40;;
28130;SDS011;15418;42.634;23.374;2022-09-09T04:20:27;32.40;;;17.15;;
28130;SDS011;15418;42.634;23.374;2022-09-09T04:22:52;36.53;;;17.80;;
28130;SDS011;15418;42.634;23.374;2022-09-09T04:25:18;31.90;;;17.25;;
28130;SDS011;15418;42.634;23.374;2022-09-09T04:27:43;39.72;;;18.10;;
28130;SDS011;15418;42.634;23.374;2022-09-09T04:30:19;28.42;;;17.20;;
28130;SDS011;15418;42.634;23.374;2022-09-09T04:32:46;30.02;;;17.13;;
28130;SDS011;15418;42.634;23.374;2022-09-09T04:35:11;37.10;;;20.02;;
28130;SDS011;15418;42.634;23.374;2022-09-09T04:37:37;57.53;;;34.83;;
28130;SDS011;15418;42.634;23.374;2022-09-09T04:40:02;27.38;;;15.70;;
28130;SDS011;15418;42.634;23.374;2022-09-09T04:42:28;26.08;;;16.45;;
28130;SDS011;15418;42.634;23.374;2022-09-09T04:45:00;24.55;;;13.30;;
28130;SDS011;15418;42.634;23.374;2022-09-09T04:47:26;42.15;;;24.23;;
28130;SDS011;15418;42.634;23.374;2022-09-09T04:49:52;35.53;;;16.90;;
28130;SDS011;15418;42.634;23.374;2022-09-09T04:52:19;31.00;;;15.00;;
28130;SDS011;15418;42.634;23.374;2022-09-09T04:54:46;21.00;;;12.68;;
28130;SDS011;15418;42.634;23.374;2022-09-09T04:57:11;21.90;;;13.13;;
28130;SDS011;15418;42.634;23.374;2022-09-09T04:59:39;22.17;;;11.23;;
28130;SDS011;15418;42.634;23.374;2022-09-09T05:02:05;14.65;;;10.05;;
28130;SDS011;15418;42.634;23.374;2022-09-09T05:04:31;15.35;;;9.98;;
28130;SDS011;15418;42.634;23.374;2022-09-09T05:06:56;18.15;;;8.73;;
28130;SDS011;15418;42.634;23.374;2022-09-09T05:09:25;23.02;;;10.05;;
28130;SDS011;15418;42.634;23.374;2022-09-09T05:11:50;16.67;;;9.60;;
28130;SDS011;15418;42.634;23.374;2022-09-09T05:14:16;17.83;;;9.80;;
28130;SDS011;15418;42.634;23.374;2022-09-09T05:16:42;17.65;;;9.07;;
28130;SDS011;15418;42.634;23.374;2022-09-09T05:19:12;19.88;;;10.15;;
28130;SDS011;15418;42.634;23.374;2022-09-09T05:21:40;16.75;;;9.13;;
28130;SDS011;15418;42.634;23.374;2022-09-09T05:24:06;12.75;;;8.32;;
28130;SDS011;15418;42.634;23.374;2022-09-09T05:26:36;11.80;;;8.43;;
28130;SDS011;15418;42.634;23.374;2022-09-09T05:29:02;11.68;;;8.05;;
28130;SDS011;15418;42.634;23.374;2022-09-09T05:31:32;17.17;;;9.15;;
28130;SDS011;15418;42.634;23.374;2022-09-09T05:33:57;10.57;;;7.50;;
28130;SDS011;15418;42.634;23.374;2022-09-09T05:36:24;18.15;;;8.15;;
28130;SDS011;15418;42.634;23.374;2022-09-09T05:38:49;13.05;;;7.57;;
28130;SDS011;15418;42.634;23.374;2022-09-09T05:41:16;15.90;;;8.98;;
28130;SDS011;15418;42.634;23.374;2022-09-09T05:43:42;12.05;;;8.25;;
28130;SDS011;15418;42.634;23.374;2022-09-09T05:48:41;22.30;;;9.35;;
28130;SDS011;15418;42.634;23.374;2022-09-09T05:51:17;16.90;;;8.27;;
28130;SDS011;15418;42.634;23.374;2022-09-09T05:53:47;15.98;;;8.63;;
28130;SDS011;15418;42.634;23.374;2022-09-09T05:56:17;9.38;;;6.68;;
28130;SDS011;15418;42.634;23.374;2022-09-09T05:58:44;16.25;;;8.25;;
28130;SDS011;15418;42.634;23.374;2022-09-09T06:01:15;12.40;;;7.68;;
28130;SDS011;15418;42.634;23.374;2022-09-09T06:03:43;12.63;;;6.68;;
28130;SDS011;15418;42.634;23.374;2022-09-09T06:06:11;9.95;;;7.85;;
28130;SDS011;15418;42.634;23.374;2022-09-09T06:08:42;16.70;;;8.23;;
28130;SDS011;15418;42.634;23.374;2022-09-09T06:11:10;18.00;;;9.10;;
28130;SDS011;15418;42.634;23.374;2022-09-09T06:13:37;16.45;;;8.20;;
28130;SDS011;15418;42.634;23.374;2022-09-09T06:16:04;13.65;;;7.43;;
28130;SDS011;15418;42.634;23.374;2022-09-09T06:18:32;19.65;;;8.52;;
28130;SDS011;15418;42.634;23.374;2022-09-09T06:20:58;18.13;;;7.95;;
28130;SDS011;15418;42.634;23.374;2022-09-09T06:23:26;16.60;;;7.45;;
28130;SDS011;15418;42.634;23.374;2022-09-09T06:26:06;12.80;;;8.13;;
28130;SDS011;15418;42.634;23.374;2022-09-09T06:28:35;13.50;;;8.38;;
28130;SDS011;15418;42.634;23.374;2022-09-09T06:31:02;19.83;;;8.27;;
28130;SDS011;15418;42.634;23.374;2022-09-09T06:33:36;14.23;;;8.15;;
28130;SDS011;15418;42.634;23.374;2022-09-09T06:36:06;14.25;;;7.82;;
28130;SDS011;15418;42.634;23.374;2022-09-09T06:38:35;16.83;;;8.20;;
28130;SDS011;15418;42.634;23.374;2022-09-09T06:41:00;14.93;;;7.75;;
28130;SDS011;15418;42.634;23.374;2022-09-09T06:43:27;17.45;;;7.25;;
28130;SDS011;15418;42.634;23.374;2022-09-09T06:46:00;14.13;;;6.63;;
28130;SDS011;15418;42.634;23.374;2022-09-09T06:48:27;11.93;;;6.20;;
28130;SDS011;15418;42.634;23.374;2022-09-09T06:51:05;10.60;;;6.38;;
28130;SDS011;15418;42.634;23.374;2022-09-09T06:53:33;9.18;;;6.40;;
28130;SDS011;15418;42.634;23.374;2022-09-09T06:58:34;12.15;;;6.05;;
28130;SDS011;15418;42.634;23.374;2022-09-09T07:01:08;14.75;;;6.32;;
28130;SDS011;15418;42.634;23.374;2022-09-09T07:03:34;13.55;;;6.45;;
28130;SDS011;15418;42.634;23.374;2022-09-09T07:06:00;18.83;;;7.15;;
28130;SDS011;15418;42.634;23.374;2022-09-09T07:08:26;19.65;;;7.72;;
28130;SDS011;15418;42.634;23.374;2022-09-09T07:10:52;18.52;;;7.25;;
28130;SDS011;15418;42.634;23.374;2022-09-09T07:13:25;12.88;;;6.35;;
28130;SDS011;15418;42.634;23.374;2022-09-09T07:15:52;19.23;;;7.20;;
28130;SDS011;15418;42.634;23.374;2022-09-09T07:18:18;26.23;;;8.38;;
28130;SDS011;15418;42.634;23.374;2022-09-09T07:20:54;15.85;;;7.32;;
28130;SDS011;15418;42.634;23.374;2022-09-09T07:23:20;17.58;;;7.32;;
28130;SDS011;15418;42.634;23.374;2022-09-09T07:25:45;14.77;;;7.07;;
28130;SDS011;15418;42.634;23.374;2022-09-09T07:28:12;17.40;;;7.03;;
28130;SDS011;15418;42.634;23.374;2022-09-09T07:30:38;12.95;;;6.95;;
28130;SDS011;15418;42.634;23.374;2022-09-09T07:33:04;17.40;;;7.25;;
28130;SDS011;15418;42.634;23.374;2022-09-09T07:35:29;15.27;;;6.65;;
28130;SDS011;15418;42.634;23.374;2022-09-09T07:37:55;15.23;;;7.47;;
28130;SDS011;15418;42.634;23.374;2022-09-09T07:40:21;19.38;;;7.65;;
28130;SDS011;15418;42.634;23.374;2022-09-09T07:42:47;24.08;;;8.30;;
28130;SDS011;15418;42.634;23.374;2022-09-09T07:45:12;14.30;;;6.28;;
28130;SDS011;15418;42.634;23.374;2022-09-09T07:47:39;12.27;;;6.68;;
28130;SDS011;15418;42.634;23.374;2022-09-09T07:50:07;12.27;;;6.13;;
28130;SDS011;15418;42.634;23.374;2022-09-09T07:52:34;23.20;;;6.97;;
28130;SDS011;15418;42.634;23.374;2022-09-09T07:55:00;21.33;;;7.45;;
28130;SDS011;15418;42.634;23.374;2022-09-09T07:57:27;12.02;;;5.90;;
28130;SDS011;15418;42.634;23.374;2022-09-09T07:59:55;10.02;;;5.80;;
28130;SDS011;15418;42.634;23.374;2022-09-09T08:02:21;16.42;;;5.72;;
28130;SDS011;15418;42.634;23.374;2022-09-09T08:04:47;16.85;;;6.18;;
28130;SDS011;15418;42.634;23.374;2022-09-09T08:07:13;19.50;;;6.47;;
28130;SDS011;15418;42.634;23.374;2022-09-09T08:09:39;33.17;;;12.48;;
28130;SDS011;15418;42.634;23.374;2022-09-09T08:12:04;15.85;;;7.60;;
28130;SDS011;15418;42.634;23.374;2022-09-09T08:14:31;19.52;;;7.70;;
28130;SDS011;15418;42.634;23.374;2022-09-09T08:16:57;12.85;;;7.18;;
28130;SDS011;15418;42.634;23.374;2022-09-09T08:19:23;13.48;;;5.70;;
28130;SDS011;15418;42.634;23.374;2022-09-09T08:21:48;16.45;;;6.00;;
28130;SDS011;15418;42.634;23.374;2022-09-09T08:24:14;15.32;;;6.28;;
28130;SDS011;15418;42.634;23.374;2022-09-09T08:26:41;14.07;;;5.72;;
28130;SDS011;15418;42.634;23.374;2022-09-09T08:29:10;12.02;;;5.60;;
28130;SDS011;15418;42.634;23.374;2022-09-09T08:31:43;11.77;;;5.82;;
28130;SDS011;15418;42.634;23.374;2022-09-09T08:34:10;11.68;;;5.78;;
28130;SDS011;15418;42.634;23.374;2022-09-09T08:36:37;23.55;;;6.63;;
28130;SDS011;15418;42.634;23.374;2022-09-09T08:39:05;13.13;;;6.75;;
28130;SDS011;15418;42.634;23.374;2022-09-09T08:52:46;14.95;;;7.15;;
28130;SDS011;15418;42.634;23.374;2022-09-09T08:57:51;11.07;;;5.55;;
28130;SDS011;15418;42.634;23.374;2022-09-09T09:00:20;10.52;;;5.85;;
28130;SDS011;15418;42.634;23.374;2022-09-09T09:02:59;12.27;;;6.35;;
28130;SDS011;15418;42.634;23.374;2022-09-09T09:08:18;11.60;;;7.63;;
28130;SDS011;15418;42.634;23.374;2022-09-09T09:10:53;17.30;;;5.80;;
28130;SDS011;15418;42.634;23.374;2022-09-09T09:15:52;15.95;;;6.13;;
28130;SDS011;15418;42.634;23.374;2022-09-09T09:18:21;16.27;;;6.25;;
28130;SDS011;15418;42.634;23.374;2022-09-09T09:20:49;21.55;;;7.20;;
28130;SDS011;15418;42.634;23.374;2022-09-09T09:23:26;17.90;;;6.20;;
28130;SDS011;15418;42.634;23.374;2022-09-09T09:26:01;12.32;;;6.75;;
28130;SDS011;15418;42.634;23.374;2022-09-09T09:28:28;16.83;;;6.80;;
28130;SDS011;15418;42.634;23.374;2022-09-09T09:33:51;15.70;;;6.00;;
28130;SDS011;15418;42.634;23.374;2022-09-09T09:36:19;18.95;;;5.80;;
28130;SDS011;15418;42.634;23.374;2022-09-09T09:38:58;14.50;;;6.13;;
28130;SDS011;15418;42.634;23.374;2022-09-09T09:41:41;16.40;;;6.47;;
28130;SDS011;15418;42.634;23.374;2022-09-09T09:44:25;13.90;;;6.15;;
28130;SDS011;15418;42.634;23.374;2022-09-09T09:47:07;12.50;;;6.15;;
28130;SDS011;15418;42.634;23.374;2022-09-09T09:49:38;18.05;;;6.38;;
28130;SDS011;15418;42.634;23.374;2022-09-09T09:52:05;14.15;;;6.32;;
28130;SDS011;15418;42.634;23.374;2022-09-09T09:54:33;14.48;;;6.70;;
28130;SDS011;15418;42.634;23.374;2022-09-09T09:57:13;19.85;;;6.65;;
28130;SDS011;15418;42.634;23.374;2022-09-09T09:59:41;8.15;;;5.90;;
28130;SDS011;15418;42.634;23.374;2022-09-09T10:02:20;11.45;;;6.13;;
28130;SDS011;15418;42.634;23.374;2022-09-09T10:05:00;15.52;;;6.80;;
28130;SDS011;15418;42.634;23.374;2022-09-09T10:07:27;20.05;;;6.60;;
28130;SDS011;15418;42.634;23.374;2022-09-09T10:09:56;15.77;;;6.20;;
28130;SDS011;15418;42.634;23.374;2022-09-09T10:12:44;15.63;;;6.13;;
28130;SDS011;15418;42.634;23.374;2022-09-09T10:15:24;16.52;;;6.90;;
28130;SDS011;15418;42.634;23.374;2022-09-09T10:18:04;14.57;;;6.10;;
28130;SDS011;15418;42.634;23.374;2022-09-09T10:20:45;25.42;;;6.63;;
28130;SDS011;15418;42.634;23.374;2022-09-09T10:29:07;24.88;;;6.25;;
28130;SDS011;15418;42.634;23.374;2022-09-09T10:40:31;19.55;;;6.78;;
28130;SDS011;15418;42.634;23.374;2022-09-09T10:56:21;26.65;;;6.97;;
28130;SDS011;15418;42.634;23.374;2022-09-09T10:58:50;21.40;;;7.18;;
28130;SDS011;15418;42.634;23.374;2022-09-09T11:01:25;16.42;;;7.20;;
28130;SDS011;15418;42.634;23.374;2022-09-09T11:04:02;11.38;;;6.65;;
28130;SDS011;15418;42.634;23.374;2022-09-09T11:06:37;18.60;;;6.20;;
28130;SDS011;15418;42.634;23.374;2022-09-09T11:09:08;19.83;;;6.70;;
28130;SDS011;15418;42.634;23.374;2022-09-09T11:11:43;19.30;;;6.75;;
28130;SDS011;15418;42.634;23.374;2022-09-09T11:19:39;24.25;;;7.80;;
28130;SDS011;15418;42.634;23.374;2022-09-09T11:22:17;19.17;;;7.55;;
28130;SDS011;15418;42.634;23.374;2022-09-09T11:24:45;22.60;;;7.57;;
28130;SDS011;15418;42.634;23.374;2022-09-09T11:38:18;11.73;;;6.65;;
28130;SDS011;15418;42.634;23.374;2022-09-09T11:40:44;16.70;;;7.53;;
28130;SDS011;15418;42.634;23.374;2022-09-09T11:43:15;16.20;;;7.70;;
28130;SDS011;15418;42.634;23.374;2022-09-09T11:45:51;16.00;;;7.22;;
28130;SDS011;15418;42.634;23.374;2022-09-09T11:48:29;22.23;;;8.40;;
28130;SDS011;15418;42.634;23.374;2022-09-09T11:51:09;26.30;;;10.20;;
28130;SDS011;15418;42.634;23.374;2022-09-09T11:56:54;13.90;;;7.13;;
28130;SDS011;15418;42.634;23.374;2022-09-09T11:59:21;28.52;;;9.77;;
28130;SDS011;15418;42.634;23.374;2022-09-09T12:01:50;21.08;;;9.18;;
28130;SDS011;15418;42.634;23.374;2022-09-09T12:06:57;20.42;;;7.90;;
28130;SDS011;15418;42.634;23.374;2022-09-09T12:14:57;14.45;;;6.70;;
28130;SDS011;15418;42.634;23.374;2022-09-09T12:17:24;18.88;;;7.43;;
28130;SDS011;15418;42.634;23.374;2022-09-09T12:22:40;15.85;;;7.25;;
28130;SDS011;15418;42.634;23.374;2022-09-09T12:28:04;21.90;;;7.78;;
28130;SDS011;15418;42.634;23.374;2022-09-09T12:30:41;27.90;;;9.02;;
28130;SDS011;15418;42.634;23.374;2022-09-09T12:33:10;34.75;;;8.45;;
28130;SDS011;15418;42.634;23.374;2022-09-09T12:35:38;20.95;;;7.82;;
28130;SDS011;15418;42.634;23.374;2022-09-09T12:38:07;16.67;;;8.00;;
28130;SDS011;15418;42.634;23.374;2022-09-09T12:40:40;19.80;;;8.10;;
28130;SDS011;15418;42.634;23.374;2022-09-09T12:43:16;19.27;;;7.90;;
28130;SDS011;15418;42.634;23.374;2022-09-09T12:45:45;17.60;;;8.82;;
28130;SDS011;15418;42.634;23.374;2022-09-09T12:48:11;16.60;;;6.95;;
28130;SDS011;15418;42.634;23.374;2022-09-09T12:50:44;14.50;;;7.47;;
28130;SDS011;15418;42.634;23.374;2022-09-09T12:53:16;22.10;;;7.80;;
28130;SDS011;15418;42.634;23.374;2022-09-09T12:55:50;39.00;;;9.07;;
28130;SDS011;15418;42.634;23.374;2022-09-09T12:58:17;19.02;;;7.00;;
28130;SDS011;15418;42.634;23.374;2022-09-09T13:00:49;26.98;;;8.05;;
28130;SDS011;15418;42.634;23.374;2022-09-09T13:03:17;16.13;;;8.00;;
28130;SDS011;15418;42.634;23.374;2022-09-09T13:05:45;15.40;;;7.07;;
28130;SDS011;15418;42.634;23.374;2022-09-09T13:08:12;14.80;;;7.93;;
28130;SDS011;15418;42.634;23.374;2022-09-09T13:13:15;21.17;;;7.28;;
28130;SDS011;15418;42.634;23.374;2022-09-09T13:15:56;19.90;;;7.60;;
28130;SDS011;15418;42.634;23.374;2022-09-09T13:18:24;22.70;;;8.07;;
28130;SDS011;15418;42.634;23.374;2022-09-09T13:21:10;18.20;;;7.63;;
28130;SDS011;15418;42.634;23.374;2022-09-09T13:23:37;17.27;;;7.28;;
28130;SDS011;15418;42.634;23.374;2022-09-09T13:26:04;21.13;;;7.78;;
28130;SDS011;15418;42.634;23.374;2022-09-09T13:28:33;16.50;;;7.70;;
28130;SDS011;15418;42.634;23.374;2022-09-09T13:33:37;17.95;;;7.20;;
28130;SDS011;15418;42.634;23.374;2022-09-09T13:36:04;28.00;;;7.68;;
28130;SDS011;15418;42.634;23.374;2022-09-09T13:38:36;23.10;;;7.75;;
28130;SDS011;15418;42.634;23.374;2022-09-09T13:41:04;23.02;;;7.32;;
28130;SDS011;15418;42.634;23.374;2022-09-09T13:43:53;23.08;;;7.78;;
28130;SDS011;15418;42.634;23.374;2022-09-09T13:48:58;19.98;;;8.45;;
28130;SDS011;15418;42.634;23.374;2022-09-09T13:54:06;23.73;;;8.57;;
28130;SDS011;15418;42.634;23.374;2022-09-09T13:56:34;19.70;;;7.78;;
28130;SDS011;15418;42.634;23.374;2022-09-09T13:59:00;18.48;;;7.40;;
28130;SDS011;15418;42.634;23.374;2022-09-09T14:01:26;24.33;;;9.60;;
28130;SDS011;15418;42.634;23.374;2022-09-09T14:03:52;20.83;;;8.30;;
28130;SDS011;15418;42.634;23.374;2022-09-09T14:06:18;20.08;;;7.90;;
28130;SDS011;15418;42.634;23.374;2022-09-09T14:08:46;18.55;;;8.65;;
28130;SDS011;15418;42.634;23.374;2022-09-09T14:11:12;16.92;;;7.47;;
28130;SDS011;15418;42.634;23.374;2022-09-09T14:13:38;20.70;;;8.25;;
28130;SDS011;15418;42.634;23.374;2022-09-09T14:16:04;17.60;;;7.65;;
28130;SDS011;15418;42.634;23.374;2022-09-09T14:18:30;16.50;;;8.25;;
28130;SDS011;15418;42.634;23.374;2022-09-09T14:20:55;19.17;;;7.82;;
28130;SDS011;15418;42.634;23.374;2022-09-09T14:23:22;23.42;;;7.60;;
28130;SDS011;15418;42.634;23.374;2022-09-09T14:25:47;31.75;;;8.90;;
28130;SDS011;15418;42.634;23.374;2022-09-09T14:28:14;23.35;;;7.85;;
28130;SDS011;15418;42.634;23.374;2022-09-09T14:30:40;24.30;;;8.52;;
28130;SDS011;15418;42.634;23.374;2022-09-09T14:33:07;23.17;;;8.60;;
28130;SDS011;15418;42.634;23.374;2022-09-09T14:35:35;18.35;;;8.15;;
28130;SDS011;15418;42.634;23.374;2022-09-09T14:38:01;19.52;;;8.43;;
28130;SDS011;15418;42.634;23.374;2022-09-09T14:40:28;19.23;;;8.15;;
28130;SDS011;15418;42.634;23.374;2022-09-09T14:42:53;18.08;;;8.23;;
28130;SDS011;15418;42.634;23.374;2022-09-09T14:45:19;15.93;;;7.57;;
28130;SDS011;15418;42.634;23.374;2022-09-09T14:47:46;23.27;;;8.20;;
28130;SDS011;15418;42.634;23.374;2022-09-09T14:50:12;24.55;;;8.65;;
28130;SDS011;15418;42.634;23.374;2022-09-09T14:52:38;19.05;;;7.78;;
28130;SDS011;15418;42.634;23.374;2022-09-09T14:55:04;20.90;;;7.70;;
28130;SDS011;15418;42.634;23.374;2022-09-09T14:57:31;16.98;;;8.20;;
28130;SDS011;15418;42.634;23.374;2022-09-09T14:59:56;23.17;;;8.95;;
28130;SDS011;15418;42.634;23.374;2022-09-09T15:02:25;21.80;;;9.43;;
28130;SDS011;15418;42.634;23.374;2022-09-09T15:04:50;15.98;;;8.30;;
28130;SDS011;15418;42.634;23.374;2022-09-09T15:07:16;24.98;;;7.82;;
28130;SDS011;15418;42.634;23.374;2022-09-09T15:09:44;21.98;;;8.27;;
28130;SDS011;15418;42.634;23.374;2022-09-09T15:12:12;19.15;;;8.15;;
28130;SDS011;15418;42.634;23.374;2022-09-09T15:14:39;23.33;;;8.55;;
28130;SDS011;15418;42.634;23.374;2022-09-09T15:17:04;21.42;;;8.88;;
28130;SDS011;15418;42.634;23.374;2022-09-09T15:19:29;23.95;;;8.02;;
28130;SDS011;15418;42.634;23.374;2022-09-09T15:21:55;19.80;;;8.60;;
28130;SDS011;15418;42.634;23.374;2022-09-09T15:24:20;22.17;;;8.13;;
28130;SDS011;15418;42.634;23.374;2022-09-09T15:26:46;15.65;;;9.07;;
28130;SDS011;15418;42.634;23.374;2022-09-09T15:29:11;28.35;;;8.45;;
28130;SDS011;15418;42.634;23.374;2022-09-09T15:31:37;14.32;;;8.23;;
28130;SDS011;15418;42.634;23.374;2022-09-09T15:34:04;19.77;;;9.13;;
28130;SDS011;15418;42.634;23.374;2022-09-09T15:38:57;18.25;;;8.57;;
28130;SDS011;15418;42.634;23.374;2022-09-09T15:41:24;19.35;;;8.38;;
28130;SDS011;15418;42.634;23.374;2022-09-09T15:43:50;17.05;;;7.90;;
28130;SDS011;15418;42.634;23.374;2022-09-09T15:48:43;20.65;;;8.90;;
28130;SDS011;15418;42.634;23.374;2022-09-09T15:51:13;24.52;;;8.75;;
28130;SDS011;15418;42.634;23.374;2022-09-09T15:53:39;17.75;;;7.53;;
28130;SDS011;15418;42.634;23.374;2022-09-09T15:56:05;18.35;;;7.38;;
28130;SDS011;15418;42.634;23.374;2022-09-09T15:58:34;20.65;;;8.27;;
28130;SDS011;15418;42.634;23.374;2022-09-09T16:01:04;18.98;;;8.45;;
28130;SDS011;15418;42.634;23.374;2022-09-09T16:03:34;18.40;;;9.07;;
28130;SDS011;15418;42.634;23.374;2022-09-09T16:06:03;22.77;;;8.70;;
28130;SDS011;15418;42.634;23.374;2022-09-09T16:08:33;17.58;;;8.52;;
28130;SDS011;15418;42.634;23.374;2022-09-09T16:11:07;20.08;;;8.93;;
28130;SDS011;15418;42.634;23.374;2022-09-09T16:13:38;24.63;;;10.05;;
28130;SDS011;15418;42.634;23.374;2022-09-09T16:16:04;37.15;;;10.55;;
28130;SDS011;15418;42.634;23.374;2022-09-09T16:18:38;22.73;;;10.73;;
28130;SDS011;15418;42.634;23.374;2022-09-09T16:21:14;32.03;;;10.88;;
28130;SDS011;15418;42.634;23.374;2022-09-09T16:23:42;47.85;;;11.85;;
28130;SDS011;15418;42.634;23.374;2022-09-09T16:26:09;21.52;;;9.20;;
28130;SDS011;15418;42.634;23.374;2022-09-09T16:28:36;21.40;;;10.00;;
28130;SDS011;15418;42.634;23.374;2022-09-09T16:31:06;26.92;;;10.02;;
28130;SDS011;15418;42.634;23.374;2022-09-09T16:33:32;23.75;;;10.10;;
28130;SDS011;15418;42.634;23.374;2022-09-09T16:35:58;26.60;;;10.23;;
28130;SDS011;15418;42.634;23.374;2022-09-09T16:38:23;26.40;;;14.40;;
28130;SDS011;15418;42.634;23.374;2022-09-09T16:40:49;29.00;;;10.70;;
28130;SDS011;15418;42.634;23.374;2022-09-09T16:43:15;28.67;;;12.02;;
28130;SDS011;15418;42.634;23.374;2022-09-09T16:45:44;29.45;;;11.30;;
28130;SDS011;15418;42.634;23.374;2022-09-09T16:48:10;25.70;;;11.07;;
28130;SDS011;15418;42.634;23.374;2022-09-09T16:50:36;29.42;;;11.57;;
28130;SDS011;15418;42.634;23.374;2022-09-09T16:53:04;39.22;;;12.82;;
28130;SDS011;15418;42.634;23.374;2022-09-09T16:55:31;30.05;;;12.57;;
28130;SDS011;15418;42.634;23.374;2022-09-09T16:57:57;28.40;;;10.55;;
28130;SDS011;15418;42.634;23.374;2022-09-09T17:00:23;34.92;;;12.15;;
28130;SDS011;15418;42.634;23.374;2022-09-09T17:02:48;40.58;;;12.32;;
28130;SDS011;15418;42.634;23.374;2022-09-09T17:05:14;29.23;;;11.85;;